Time;durP1;ratioP1;P1;durP2;ratioP2;P2;SDS_P1;SDS_P2;PMS_P1;PMS_P2;Temp;Humidity;BMP_temperature;BMP_pressure;BME280_temperature;BME280_humidity;BME280_pressure;Samples;Min_cycle;Max_cycle;Signal;HPM_P1;HPM_P2
2022/11/26 00:01:17;;;;;;;10.65;7.07;;;;;;;4.92;96.21;101037.69;5049944;28;20029;-73
2022/11/26 00:03:44;;;;;;;11.77;6.68;;;;;;;5.01;96.69;101035.75;5049094;28;20491;-75
2022/11/26 00:06:33;;;;;;;11.02;6.75;;;;;;;5.12;96.16;101028.81;5049223;28;21162;-76
2022/11/26 00:08:59;;;;;;;;;;;;;;;5.08;95.56;101052.41;5047671;28;20037;-71
2022/11/26 00:11:25;;;;;;;11.38;7.20;;;;;;;4.93;96.61;101051.34;5049564;28;19916;-75
2022/11/26 00:13:51;;;;;;;10.77;7.22;;;;;;;4.81;97.65;101038.59;5049730;28;20068;-72
2022/11/26 00:16:16;;;;;;;11.38;7.03;;;;;;;5.03;97.54;101064.00;5049261;28;20071;-73
2022/11/26 00:18:43;;;;;;;11.35;7.20;;;;;;;4.97;97.11;101059.34;5048442;28;20036;-76
2022/11/26 00:21:17;;;;;;;10.65;6.97;;;;;;;5.12;97.09;101074.88;5053381;28;20031;-73
2022/11/26 00:23:43;;;;;;;13.48;7.63;;;;;;;5.13;96.26;101081.75;5052484;28;20036;-71
2022/11/26 00:26:14;;;;;;;9.18;6.68;;;;;;;5.00;97.19;101071.47;5053087;28;20438;-71
2022/11/26 00:28:47;;;;;;;10.25;6.93;;;;;;;5.04;97.50;101073.44;5053330;28;20504;-73
2022/11/26 00:31:14;;;;;;;11.82;7.20;;;;;;;4.85;96.45;101078.97;5034534;28;20049;-76
2022/11/26 00:33:40;;;;;;;8.40;6.55;;;;;;;4.62;97.25;101037.34;5053431;28;20035;-74
2022/11/26 00:36:18;;;;;;;11.23;6.95;;;;;;;4.81;97.51;101071.84;5053191;28;20103;-71
2022/11/26 00:38:46;;;;;;;9.38;6.05;;;;;;;4.47;96.88;101043.91;5052989;28;20435;-73
2022/11/26 00:41:22;;;;;;;9.63;6.68;;;;;;;4.62;96.72;101077.34;5053134;28;20032;-72
2022/11/26 00:43:49;;;;;;;12.27;6.70;;;;;;;4.41;97.20;101089.50;5052879;28;20029;-74
2022/11/26 00:46:24;;;;;;;11.70;7.05;;;;;;;4.40;98.65;101088.63;5051724;28;20041;-75
2022/11/26 00:48:50;;;;;;;13.32;6.90;;;;;;;4.51;99.05;101077.50;5050660;28;20439;-75
2022/11/26 00:51:26;;;;;;;11.80;7.45;;;;;;;4.68;97.71;101091.44;5052723;28;20029;-77
2022/11/26 00:53:57;;;;;;;12.77;7.43;;;;;;;4.63;97.60;101095.34;5023169;28;20048;-75
2022/11/26 00:56:23;;;;;;;11.18;7.70;;;;;;;4.63;97.49;101082.56;5052651;28;20395;-75
2022/11/26 00:58:49;;;;;;;12.93;7.80;;;;;;;4.81;97.68;101102.53;5052681;28;20035;-72
2022/11/26 01:01:21;;;;;;;10.60;7.15;;;;;;;4.90;96.97;101102.28;5038674;28;20037;-77
2022/11/26 01:03:47;;;;;;;11.43;7.68;;;;;;;4.84;97.04;101102.78;5032672;28;22201;-74
2022/11/26 01:06:20;;;;;;;11.75;8.05;;;;;;;4.68;96.13;101113.59;5013186;28;20037;-73
2022/11/26 01:08:46;;;;;;;10.65;6.65;;;;;;;4.30;96.50;101119.38;5030635;28;20450;-73
2022/11/26 01:11:17;;;;;;;11.48;8.15;;;;;;;4.07;98.50;101120.28;5031396;28;20035;-74
2022/11/26 01:13:44;;;;;;;9.45;7.38;;;;;;;4.18;98.64;101112.59;5037946;28;20032;-72
2022/11/26 01:16:24;;;;;;;10.20;6.90;;;;;;;4.22;98.90;101118.84;5046865;28;20029;-73
2022/11/26 01:18:53;;;;;;;13.40;8.13;;;;;;;4.25;99.23;101125.84;5052357;28;20033;-75
2022/11/26 01:21:19;;;;;;;18.20;11.07;;;;;;;4.15;99.15;101131.94;5052644;28;20028;-72
2022/11/26 01:23:44;;;;;;;11.85;8.27;;;;;;;3.91;99.85;101134.47;5051723;28;20033;-72
2022/11/26 01:26:40;;;;;;;12.98;8.05;;;;;;;3.73;100.00;101134.88;5052393;28;20094;-74
2022/11/26 01:29:05;;;;;;;11.95;7.68;;;;;;;3.56;100.00;101120.84;5050813;28;20091;-75
2022/11/26 01:31:31;;;;;;;11.55;7.55;;;;;;;3.52;100.00;101129.03;5052142;28;20028;-75
2022/11/26 01:33:57;;;;;;;13.57;8.07;;;;;;;3.53;100.00;101118.03;5035417;28;20029;-74
2022/11/26 01:36:31;;;;;;;12.13;7.97;;;;;;;3.62;100.00;101116.97;5032653;28;20030;-72
2022/11/26 01:39:00;;;;;;;11.77;7.20;;;;;;;3.31;100.00;101074.69;5032474;28;20049;-72
2022/11/26 01:41:40;;;;;;;10.65;7.32;;;;;;;3.28;100.00;101122.03;5031151;28;20132;-74
2022/11/26 01:44:13;;;;;;;11.95;7.65;;;;;;;3.33;100.00;101113.97;5032173;28;20499;-76
2022/11/26 01:46:39;;;;;;;9.98;7.13;;;;;;;3.40;100.00;101113.69;5031183;28;20037;-77
2022/11/26 01:49:34;;;;;;;11.07;7.50;;;;;;;3.49;100.00;101110.03;5032327;28;20395;-73
2022/11/26 01:52:22;;;;;;;11.55;7.32;;;;;;;2.91;100.00;101003.66;4951454;29;20043;-72
2022/11/26 01:54:49;;;;;;;10.20;7.20;;;;;;;3.51;100.00;101090.63;4951469;29;20031;-73
2022/11/26 01:57:20;;;;;;;12.95;7.65;;;;;;;3.58;99.96;101113.28;4951349;29;20099;-74
2022/11/26 01:59:53;;;;;;;12.43;7.22;;;;;;;3.56;100.00;101105.53;4951455;29;20039;-74
2022/11/26 02:02:21;;;;;;;10.25;6.88;;;;;;;3.64;100.00;101111.22;4951324;29;20054;-74
2022/11/26 02:04:53;;;;;;;11.70;7.63;;;;;;;3.54;99.83;101101.97;4951082;29;20031;-75
2022/11/26 02:07:18;;;;;;;11.45;7.82;;;;;;;3.66;100.00;101109.63;4951314;29;20062;-75
2022/11/26 02:09:45;;;;;;;10.88;7.70;;;;;;;3.65;99.14;101092.56;4951251;29;20039;-72
2022/11/26 02:12:11;;;;;;;12.43;8.20;;;;;;;3.82;99.88;101116.78;4951170;29;20031;-74
2022/11/26 02:14:41;;;;;;;13.13;8.38;;;;;;;3.54;100.00;101073.00;4951116;29;20126;-73
2022/11/26 02:17:22;;;;;;;12.68;8.18;;;;;;;3.65;100.00;101087.47;4950985;28;20122;-79
2022/11/26 02:19:56;;;;;;;11.15;7.65;;;;;;;3.79;100.00;101108.91;4951130;29;20039;-76
2022/11/26 02:25:26;;;;;;;12.65;8.48;;;;;;;3.46;100.00;101077.50;5365679;22;20078;-75
2022/11/26 02:28:23;;;;;;;11.75;7.85;;;;;;;3.72;100.00;101114.31;5092063;28;20097;-74
2022/11/26 02:31:10;;;;;;;9.43;7.03;;;;;;;3.59;100.00;101120.19;5092240;28;20385;-75
2022/11/26 02:33:49;;;;;;;12.25;7.90;;;;;;;3.52;100.00;101129.03;5090287;28;20024;-75
2022/11/26 02:36:31;;;;;;;12.40;8.75;;;;;;;3.60;100.00;101137.28;5092238;28;20489;-73
2022/11/26 02:38:56;;;;;;;12.95;7.72;;;;;;;3.60;100.00;101139.84;5091910;28;20039;-74
2022/11/26 02:41:22;;;;;;;13.63;6.90;;;;;;;3.56;100.00;101136.16;5091892;28;20028;-74
2022/11/26 02:43:47;;;;;;;11.95;8.48;;;;;;;3.34;100.00;101148.94;5072431;28;20040;-74
2022/11/26 02:46:18;;;;;;;12.90;7.43;;;;;;;2.78;100.00;101125.91;5091574;28;20080;-75
2022/11/26 02:48:49;;;;;;;11.32;8.13;;;;;;;2.77;100.00;101149.63;5091749;28;20032;-74
2022/11/26 02:51:24;;;;;;;13.27;8.13;;;;;;;2.57;100.00;101099.63;5091770;28;20035;-74
2022/11/26 02:53:51;;;;;;;11.07;7.45;;;;;;;2.96;100.00;101141.75;5091797;28;20028;-74
2022/11/26 02:56:38;;;;;;;12.45;7.80;;;;;;;3.04;100.00;101144.91;5069016;28;20051;-75
2022/11/26 02:59:04;;;;;;;13.32;8.30;;;;;;;2.97;100.00;101130.78;5068929;28;20044;-75
2022/11/26 03:01:39;;;;;;;11.65;7.75;;;;;;;3.22;100.00;101160.75;5068978;28;20538;-74
2022/11/26 03:04:18;;;;;;;13.70;8.65;;;;;;;3.21;100.00;101161.53;5068977;28;20142;-75
2022/11/26 03:06:45;;;;;;;13.88;8.35;;;;;;;3.15;100.00;101163.59;5068976;28;20055;-74
2022/11/26 03:09:10;;;;;;;13.32;9.05;;;;;;;3.04;100.00;101158.56;5068906;28;20847;-75
2022/11/26 03:11:36;;;;;;;15.30;9.07;;;;;;;2.81;100.00;101122.72;5068869;28;20139;-74
2022/11/26 03:14:02;;;;;;;13.45;9.20;;;;;;;3.00;100.00;101147.97;5068882;28;20131;-75
2022/11/26 03:16:28;;;;;;;14.30;8.98;;;;;;;3.12;100.00;101163.38;5035324;28;20032;-75
2022/11/26 03:18:54;;;;;;;13.35;8.95;;;;;;;3.16;100.00;101179.03;5068736;28;20098;-75
2022/11/26 03:21:19;;;;;;;13.25;8.88;;;;;;;3.12;100.00;101173.56;5068735;28;20040;-74
2022/11/26 03:23:45;;;;;;;13.45;8.80;;;;;;;3.09;100.00;101174.22;5068708;28;20040;-75
2022/11/26 03:26:10;;;;;;;12.00;8.15;;;;;;;3.15;100.00;101173.81;5068406;28;20068;-74
2022/11/26 03:28:36;;;;;;;14.50;9.60;;;;;;;3.10;100.00;101170.00;5087301;28;20048;-74
2022/11/26 03:31:01;;;;;;;27.95;15.60;;;;;;;2.97;100.00;101156.28;5090948;28;20406;-75
2022/11/26 03:33:27;;;;;;;21.40;12.18;;;;;;;2.91;100.00;101140.50;5090496;28;20060;-74
2022/11/26 03:41:07;;;;;;;14.20;8.95;;;;;;;3.08;100.00;101190.31;5670122;22;20495;-75
2022/11/26 03:43:33;;;;;;;12.90;8.85;;;;;;;2.87;100.00;101192.03;5071674;28;20055;-75
2022/11/26 03:46:04;;;;;;;14.77;8.68;;;;;;;2.77;100.00;101186.97;5072133;28;20028;-75
2022/11/26 03:48:30;;;;;;;14.63;9.65;;;;;;;2.68;100.00;101192.22;5071892;28;20028;-75
2022/11/26 03:50:55;;;;;;;17.98;10.65;;;;;;;2.71;100.00;101205.22;5071962;28;20073;-74
2022/11/26 03:53:21;;;;;;;16.00;10.90;;;;;;;2.63;100.00;101191.88;5072583;28;20440;-73
2022/11/26 03:55:47;;;;;;;25.10;17.50;;;;;;;2.72;100.00;101214.66;5076297;28;20025;-74
2022/11/26 03:58:12;;;;;;;29.73;21.52;;;;;;;2.61;100.00;101205.25;5124413;22;20036;-76
2022/11/26 04:00:37;;;;;;;20.63;13.93;;;;;;;2.38;100.00;101174.59;5079039;28;20037;-76
2022/11/26 04:06:02;;;;;;;13.25;8.38;;;;;;;2.63;100.00;101225.00;5124611;22;20063;-74
2022/11/26 04:08:27;;;;;;;13.10;8.48;;;;;;;2.45;100.00;101180.19;5074585;28;20036;-74
2022/11/26 04:10:53;;;;;;;12.07;8.15;;;;;;;2.62;100.00;101215.56;5074557;28;20036;-76
2022/11/26 04:13:18;;;;;;;15.27;8.95;;;;;;;2.50;100.00;101196.75;5073157;28;20037;-73
2022/11/26 04:15:44;;;;;;;12.98;8.70;;;;;;;2.55;100.00;101203.97;5056005;28;20024;-73
2022/11/26 04:18:09;;;;;;;14.63;8.85;;;;;;;2.52;100.00;101213.94;5073871;28;20036;-73
2022/11/26 04:20:35;;;;;;;15.65;9.57;;;;;;;2.48;100.00;101214.47;5074111;28;20112;-74
2022/11/26 04:23:00;;;;;;;15.52;9.45;;;;;;;2.48;100.00;101198.25;5074034;28;20120;-73
2022/11/26 04:25:26;;;;;;;14.50;10.77;;;;;;;2.50;100.00;101212.91;5072024;28;20032;-73
2022/11/26 04:27:51;;;;;;;15.55;10.27;;;;;;;2.40;100.00;101195.09;5073913;28;20044;-75
2022/11/26 04:30:17;;;;;;;15.70;9.60;;;;;;;2.32;100.00;101203.75;5055921;28;20028;-72
2022/11/26 04:32:42;;;;;;;16.58;9.45;;;;;;;2.12;100.00;101172.47;5073613;28;20478;-79
2022/11/26 04:35:08;;;;;;;15.82;9.52;;;;;;;2.37;100.00;101225.44;5073948;28;20136;-76
2022/11/26 04:37:33;;;;;;;14.10;9.35;;;;;;;2.25;100.00;101189.63;5073598;28;20028;-75
2022/11/26 04:39:59;;;;;;;14.73;9.85;;;;;;;2.45;100.00;101210.78;5073698;28;20056;-73
2022/11/26 04:42:24;;;;;;;15.00;9.50;;;;;;;2.54;100.00;101237.91;5073623;28;20479;-72
2022/11/26 04:44:50;;;;;;;12.77;9.15;;;;;;;2.61;100.00;101238.41;5073399;28;20029;-72
2022/11/26 04:47:15;;;;;;;22.48;14.43;;;;;;;2.60;100.00;101252.78;5073341;28;20029;-73
2022/11/26 04:49:41;;;;;;;23.52;17.33;;;;;;;2.52;100.00;101247.06;5073424;28;20145;-75
2022/11/26 04:52:06;;;;;;;53.75;41.20;;;;;;;2.62;100.00;101242.72;5073549;28;20059;-71
2022/11/26 04:54:32;;;;;;;47.90;38.50;;;;;;;2.51;100.00;101232.53;5073340;28;20028;-73
2022/11/26 04:56:57;;;;;;;57.50;42.70;;;;;;;2.42;100.00;101207.19;5073367;28;20777;-73
2022/11/26 04:59:22;;;;;;;55.03;43.03;;;;;;;2.56;100.00;101236.34;5073336;28;20025;-71
2022/11/26 05:01:48;;;;;;;46.55;35.25;;;;;;;2.62;100.00;101261.47;5055277;28;20085;-74
2022/11/26 05:04:13;;;;;;;17.95;11.52;;;;;;;2.12;100.00;101260.72;5073258;28;20063;-75
2022/11/26 05:06:39;;;;;;;16.85;10.73;;;;;;;2.04;100.00;101255.88;5071987;28;20418;-76
2022/11/26 05:09:04;;;;;;;17.80;11.43;;;;;;;2.24;100.00;101277.03;5073167;28;20085;-75
2022/11/26 05:11:30;;;;;;;45.97;29.77;;;;;;;2.13;100.00;101248.13;5073238;28;20059;-75
2022/11/26 05:13:55;;;;;;;51.15;32.58;;;;;;;2.00;100.00;101242.75;5073087;28;20040;-77
2022/11/26 05:16:21;;;;;;;58.47;35.08;;;;;;;1.99;100.00;101241.84;5072821;28;20067;-73
2022/11/26 05:18:46;;;;;;;41.92;23.85;;;;;;;2.08;100.00;101269.75;5069881;28;20466;-75
2022/11/26 05:21:12;;;;;;;44.00;29.40;;;;;;;2.06;100.00;101286.56;5063675;28;20558;-74
2022/11/26 05:23:37;;;;;;;55.63;41.38;;;;;;;1.86;100.00;101252.69;5051092;28;20048;-73
2022/11/26 05:26:03;;;;;;;53.70;39.47;;;;;;;2.07;100.00;101290.91;5052620;28;20473;-76
2022/11/26 05:28:28;;;;;;;45.27;28.80;;;;;;;2.10;100.00;101312.41;5058511;28;20056;-74
2022/11/26 05:30:59;;;;;;;17.50;12.05;;;;;;;1.94;100.00;101300.06;5068274;28;20024;-74
2022/11/26 05:33:24;;;;;;;18.05;11.02;;;;;;;1.90;100.00;101298.00;5072463;28;20029;-75
2022/11/26 05:35:49;;;;;;;15.77;10.87;;;;;;;1.83;100.00;101305.00;5072506;28;20844;-77
2022/11/26 05:38:15;;;;;;;40.47;22.27;;;;;;;1.61;100.00;101255.69;5072172;28;20032;-72
2022/11/26 05:40:40;;;;;;;94.67;53.93;;;;;;;1.87;100.00;101294.28;5072450;28;20032;-75
2022/11/26 05:43:06;;;;;;;58.17;36.72;;;;;;;2.06;100.00;101309.50;5072345;28;20029;-75
2022/11/26 05:45:31;;;;;;;51.20;33.23;;;;;;;2.08;100.00;101308.88;5071916;28;20035;-73
2022/11/26 05:47:57;;;;;;;41.10;24.23;;;;;;;2.17;100.00;101306.19;5072662;28;20123;-76
2022/11/26 05:50:22;;;;;;;31.75;18.33;;;;;;;1.63;100.00;101217.63;5071510;28;20070;-75
2022/11/26 05:52:47;;;;;;;28.50;14.93;;;;;;;2.18;100.00;101322.38;5072528;28;20132;-77
2022/11/26 05:55:15;;;;;;;22.45;11.93;;;;;;;2.19;100.00;101327.56;5071838;28;20040;-74
2022/11/26 05:57:40;;;;;;;16.83;11.00;;;;;;;2.18;100.00;101325.81;5071738;28;20056;-73
2022/11/26 06:00:06;;;;;;;18.58;11.35;;;;;;;1.92;100.00;101298.16;5052641;28;20038;-75
2022/11/26 06:02:32;;;;;;;17.15;11.63;;;;;;;2.06;100.00;101314.59;5071734;28;20051;-72
2022/11/26 06:04:58;;;;;;;20.40;12.73;;;;;;;2.21;100.00;101327.72;5071577;28;20127;-75
2022/11/26 06:07:23;;;;;;;28.90;16.73;;;;;;;2.23;100.00;101337.28;5071802;28;20097;-75
2022/11/26 06:09:49;;;;;;;23.70;15.43;;;;;;;2.30;100.00;101343.78;5071516;28;20032;-75
2022/11/26 06:12:14;;;;;;;27.98;17.58;;;;;;;2.28;100.00;101332.59;5071393;28;20039;-73
2022/11/26 06:14:39;;;;;;;31.20;19.67;;;;;;;2.28;100.00;101331.69;5053278;28;20043;-73
2022/11/26 06:17:05;;;;;;;31.73;20.65;;;;;;;2.33;100.00;101336.41;5070700;28;20032;-73
2022/11/26 06:19:30;;;;;;;30.80;19.70;;;;;;;2.34;100.00;101329.66;5071465;28;20367;-72
2022/11/26 06:21:55;;;;;;;46.15;34.05;;;;;;;2.43;100.00;101353.38;5071299;28;20028;-75
2022/11/26 06:24:21;;;;;;;25.13;19.52;;;;;;;2.50;100.00;101357.31;5070929;28;20402;-72
2022/11/26 06:26:47;;;;;;;20.83;15.02;;;;;;;2.56;100.00;101362.91;5071219;28;20169;-74
2022/11/26 06:29:12;;;;;;;22.00;14.00;;;;;;;2.38;100.00;101337.69;5071015;28;20414;-75
2022/11/26 06:31:39;;;;;;;20.40;13.27;;;;;;;2.34;100.00;101320.34;5070934;28;20099;-73
2022/11/26 06:34:04;;;;;;;22.17;14.77;;;;;;;2.32;100.00;101316.78;5071046;28;20479;-75
2022/11/26 06:36:30;;;;;;;42.15;34.00;;;;;;;2.70;100.00;101380.25;5071187;28;20035;-72
2022/11/26 06:38:55;;;;;;;88.15;53.85;;;;;;;2.53;100.00;101334.63;5070815;28;20024;-73
2022/11/26 06:41:21;;;;;;;28.38;19.40;;;;;;;2.81;100.00;101380.25;5070991;28;20029;-76
2022/11/26 06:43:46;;;;;;;24.00;15.75;;;;;;;2.80;100.00;101370.81;5070786;28;20035;-75
2022/11/26 06:46:11;;;;;;;19.02;11.88;;;;;;;2.81;100.00;101380.25;5070910;28;20402;-75
2022/11/26 06:48:38;;;;;;;18.33;12.57;;;;;;;2.99;100.00;101386.88;5070866;28;20029;-73
2022/11/26 06:51:05;;;;;;;20.95;12.43;;;;;;;3.11;100.00;101381.00;5070676;28;20473;-76
2022/11/26 06:53:31;;;;;;;18.50;13.32;;;;;;;3.19;100.00;101385.97;5070632;28;20033;-73
2022/11/26 06:56:09;;;;;;;24.58;14.63;;;;;;;3.34;100.00;101393.97;5052810;28;20063;-75
2022/11/26 06:58:35;;;;;;;26.57;15.60;;;;;;;3.31;100.00;101370.72;5070963;28;20028;-72
2022/11/26 07:01:13;;;;;;;19.75;13.45;;;;;;;3.48;100.00;101382.31;5070887;28;20044;-75
2022/11/26 07:03:39;;;;;;;24.88;15.80;;;;;;;3.62;100.00;101398.72;5034879;28;20045;-75
2022/11/26 07:06:05;;;;;;;24.40;16.05;;;;;;;3.66;100.00;101390.53;5070570;28;20053;-73
2022/11/26 07:08:30;;;;;;;25.33;16.45;;;;;;;3.75;100.00;101394.59;5070590;28;20039;-72
2022/11/26 07:11:03;;;;;;;18.77;11.98;;;;;;;3.69;100.00;101374.59;5070285;28;20064;-77
2022/11/26 07:13:28;;;;;;;16.92;12.35;;;;;;;3.85;100.00;101381.78;5070647;28;20487;-75
2022/11/26 07:15:53;;;;;;;13.98;10.05;;;;;;;3.89;100.00;101384.69;5066097;28;20086;-74
2022/11/26 07:18:19;;;;;;;18.30;11.50;;;;;;;3.98;100.00;101389.63;5049996;28;20036;-74
2022/11/26 07:20:44;;;;;;;19.35;11.90;;;;;;;4.01;100.00;101379.66;5050205;28;20036;-77
2022/11/26 07:23:10;;;;;;;21.92;14.10;;;;;;;4.18;100.00;101387.75;5050608;28;20082;-75
2022/11/26 07:25:35;;;;;;;21.70;14.65;;;;;;;4.26;100.00;101368.78;5050153;28;20562;-74
2022/11/26 07:28:01;;;;;;;42.22;21.55;;;;;;;4.15;100.00;101349.16;5049972;28;20037;-73
2022/11/26 07:30:26;;;;;;;17.70;12.50;;;;;;;4.55;100.00;101400.81;5050389;28;20056;-74
2022/11/26 07:32:52;;;;;;;16.95;11.75;;;;;;;4.56;100.00;101387.25;5049165;28;20430;-75
2022/11/26 07:35:17;;;;;;;16.55;11.40;;;;;;;4.63;100.00;101386.03;5032518;28;20041;-76
2022/11/26 07:37:42;;;;;;;26.50;20.65;;;;;;;4.53;100.00;101405.78;5050197;28;20036;-76
2022/11/26 07:40:08;;;;;;;29.27;23.67;;;;;;;4.52;100.00;101391.25;5050261;28;20028;-73
2022/11/26 07:42:35;;;;;;;30.05;24.23;;;;;;;4.75;100.00;101406.50;5049020;28;20094;-76
2022/11/26 07:45:00;;;;;;;40.15;33.38;;;;;;;4.59;100.00;101404.50;5050069;28;20039;-75
2022/11/26 07:47:26;;;;;;;26.95;20.05;;;;;;;4.41;100.00;101396.28;5049987;28;20025;-72
2022/11/26 07:49:51;;;;;;;22.85;17.63;;;;;;;4.77;100.00;101404.97;5050259;28;20033;-74
2022/11/26 07:52:17;;;;;;;24.60;19.25;;;;;;;4.98;100.00;101398.91;5050207;28;20033;-75
2022/11/26 07:54:42;;;;;;;22.95;16.85;;;;;;;5.15;100.00;101406.97;5049833;28;20032;-77
2022/11/26 07:57:08;;;;;;;19.10;12.65;;;;;;;5.15;100.00;101395.03;5050193;28;20040;-71
2022/11/26 07:59:33;;;;;;;20.05;13.73;;;;;;;5.02;100.00;101353.94;5050058;28;20795;-73
2022/11/26 08:01:59;;;;;;;25.67;16.63;;;;;;;5.47;100.00;101403.28;5049973;28;20032;-75
2022/11/26 08:04:24;;;;;;;19.80;11.90;;;;;;;5.57;100.00;101389.47;5049693;28;20183;-75
2022/11/26 08:06:51;;;;;;;18.35;12.10;;;;;;;5.57;100.00;101385.25;5048727;28;20037;-75
2022/11/26 08:09:17;;;;;;;21.15;12.93;;;;;;;5.62;99.94;101388.13;5049811;28;20025;-75
2022/11/26 08:11:42;;;;;;;15.40;11.23;;;;;;;5.74;99.66;101378.75;5049745;28;20025;-73
2022/11/26 08:14:11;;;;;;;16.70;12.77;;;;;;;5.49;99.60;101350.50;5049622;28;20086;-77
2022/11/26 08:16:37;;;;;;;16.95;11.70;;;;;;;5.88;99.85;101382.31;5049817;28;20029;-75
2022/11/26 08:19:06;;;;;;;17.75;11.75;;;;;;;5.82;99.39;101382.75;5049864;28;20033;-75
2022/11/26 08:21:32;;;;;;;22.77;13.80;;;;;;;5.99;98.97;101381.44;5030852;28;20499;-71
2022/11/26 08:23:58;;;;;;;15.75;10.50;;;;;;;6.15;99.00;101379.94;5049422;28;20032;-74
2022/11/26 08:26:24;;;;;;;14.80;11.00;;;;;;;6.30;98.24;101390.34;5049841;28;20025;-75
2022/11/26 08:28:50;;;;;;;15.02;10.55;;;;;;;6.44;98.06;101394.78;5030770;28;20446;-74
2022/11/26 08:31:16;;;;;;;12.75;9.13;;;;;;;6.45;97.88;101385.38;5048576;28;20079;-72
2022/11/26 08:33:42;;;;;;;13.35;9.35;;;;;;;6.52;97.69;101387.59;5049812;28;20082;-74
2022/11/26 08:36:08;;;;;;;14.80;9.90;;;;;;;6.61;95.82;101374.50;5049795;28;20119;-72
2022/11/26 08:38:34;;;;;;;19.75;11.25;;;;;;;6.48;96.64;101365.09;5049229;28;20380;-75
2022/11/26 08:41:02;;;;;;;16.08;9.30;;;;;;;6.63;96.49;101391.78;5051212;28;20021;-72
2022/11/26 08:43:29;;;;;;;11.80;8.15;;;;;;;6.71;93.88;101399.09;5053477;28;20021;-74
2022/11/26 08:45:58;;;;;;;10.65;8.05;;;;;;;6.71;95.24;101394.84;5052994;28;20491;-74
2022/11/26 08:48:26;;;;;;;16.27;9.35;;;;;;;6.62;95.45;101372.03;5053360;28;20021;-75
2022/11/26 08:50:59;;;;;;;12.02;8.00;;;;;;;6.77;93.59;101356.75;5053217;28;20834;-74
2022/11/26 08:53:26;;;;;;;12.38;8.45;;;;;;;7.16;92.81;101390.09;5056289;28;20037;-75
2022/11/26 08:55:52;;;;;;;10.63;6.70;;;;;;;7.22;90.67;101385.38;5060798;28;20403;-74
2022/11/26 08:58:17;;;;;;;14.18;8.20;;;;;;;7.43;89.86;101383.28;5063288;28;20037;-74
2022/11/26 09:00:43;;;;;;;11.68;7.28;;;;;;;7.57;88.49;101375.59;5057904;28;20121;-71
2022/11/26 09:03:08;;;;;;;14.00;7.22;;;;;;;7.82;87.55;101385.72;5063911;28;20399;-72
2022/11/26 09:05:34;;;;;;;11.43;7.53;;;;;;;7.94;88.37;101375.34;5062811;28;20049;-73
2022/11/26 09:07:59;;;;;;;11.57;7.05;;;;;;;8.14;87.57;101393.66;5061723;28;20387;-76
2022/11/26 09:10:25;;;;;;;10.10;7.60;;;;;;;8.05;87.24;101392.31;5058195;28;20029;-73
2022/11/26 09:12:51;;;;;;;11.82;7.55;;;;;;;7.77;89.15;101382.88;5063769;28;20041;-76
2022/11/26 09:15:16;;;;;;;10.23;7.13;;;;;;;7.85;86.39;101377.31;5063651;28;20031;-73
2022/11/26 09:17:42;;;;;;;10.00;6.22;;;;;;;7.91;85.96;101359.72;5054670;28;20405;-74
2022/11/26 09:20:07;;;;;;;11.10;6.13;;;;;;;8.23;84.18;101397.69;5052825;28;20029;-74
2022/11/26 09:22:34;;;;;;;10.02;6.47;;;;;;;8.33;82.56;101395.69;5058595;28;20098;-74
2022/11/26 09:24:59;;;;;;;11.27;5.00;;;;;;;8.29;81.86;101358.59;5060428;28;20066;-75
2022/11/26 09:27:25;;;;;;;14.70;6.43;;;;;;;8.67;82.97;101383.22;5067856;28;20072;-75
2022/11/26 09:29:50;;;;;;;8.00;5.68;;;;;;;8.82;83.48;101367.78;5068510;28;20064;-75
2022/11/26 09:32:15;;;;;;;7.68;5.28;;;;;;;8.93;81.79;101354.63;5071747;28;20036;-75
2022/11/26 09:34:41;;;;;;;10.43;4.88;;;;;;;9.19;79.64;101385.34;5064706;28;20486;-72
2022/11/26 09:37:06;;;;;;;9.55;5.40;;;;;;;9.25;80.49;101379.66;5067765;28;20379;-72
2022/11/26 09:39:32;;;;;;;9.35;5.63;;;;;;;9.33;79.84;101364.63;5052756;28;20037;-72
2022/11/26 09:42:00;;;;;;;11.30;5.68;;;;;;;9.13;79.19;101312.84;5063272;28;20023;-75
2022/11/26 09:44:44;;;;;;;12.82;11.52;;;;;;;9.49;79.69;101382.72;5066789;28;20028;-75
2022/11/26 09:47:27;;;;;;;9.88;6.65;;;;;;;9.37;82.04;101379.47;5070018;28;20032;-74
2022/11/26 09:50:01;;;;;;;10.25;7.05;;;;;;;9.35;81.79;101360.47;5071548;28;20032;-72
2022/11/26 09:52:40;;;;;;;10.65;6.90;;;;;;;9.61;80.91;101366.16;5071095;28;20028;-74
2022/11/26 09:55:14;;;;;;;9.20;6.60;;;;;;;9.63;80.66;101373.22;5069892;28;20082;-75
2022/11/26 09:57:48;;;;;;;8.98;6.40;;;;;;;9.34;80.83;101344.09;5026287;28;20132;-75
2022/11/26 10:00:25;;;;;;;9.77;7.88;;;;;;;9.61;79.58;101356.75;5026937;28;20048;-73
2022/11/26 10:02:52;;;;;;;10.05;6.70;;;;;;;9.63;77.58;101350.00;5017848;28;20408;-73
2022/11/26 10:05:21;;;;;;;11.73;7.20;;;;;;;9.77;77.90;101363.66;5027814;28;20057;-74
2022/11/26 10:08:25;;;;;;;10.65;7.32;;;;;;;10.02;77.48;101362.41;5006919;28;20159;-73
2022/11/26 10:10:53;;;;;;;8.30;5.47;;;;;;;10.08;76.39;101359.25;4930023;29;20046;-74
2022/11/26 10:13:31;;;;;;;9.15;6.13;;;;;;;10.28;75.38;101360.28;4930995;29;20050;-73
2022/11/26 10:16:08;;;;;;;8.75;5.72;;;;;;;10.20;76.33;101311.75;4930353;29;20106;-73
2022/11/26 10:19:00;;;;;;;14.57;8.95;;;;;;;10.50;73.84;101347.75;4927531;29;20050;-77
2022/11/26 10:21:47;;;;;;;12.95;7.40;;;;;;;10.62;74.96;101333.69;4928104;29;20135;-75
2022/11/26 10:24:29;;;;;;;10.63;6.40;;;;;;;10.86;76.43;101353.81;4927639;29;20704;-71
2022/11/26 10:26:57;;;;;;;11.27;6.50;;;;;;;10.78;75.37;101337.91;4929423;29;20051;-74
2022/11/26 10:29:33;;;;;;;10.88;5.90;;;;;;;10.74;74.80;101326.56;4961171;28;20035;-73
2022/11/26 10:32:24;;;;;;;15.57;6.22;;;;;;;10.86;74.73;101325.38;4969277;28;20027;-72
2022/11/26 10:34:52;;;;;;;13.25;5.93;;;;;;;10.72;71.79;101337.63;4968542;28;20038;-72
2022/11/26 10:37:20;;;;;;;11.18;5.90;;;;;;;10.80;73.07;101341.47;4967778;28;20039;-73
2022/11/26 10:39:45;;;;;;;16.50;5.93;;;;;;;10.92;72.90;101336.91;4985986;28;20212;-70
2022/11/26 10:42:18;;;;;;;14.63;5.68;;;;;;;10.88;71.38;101341.84;4988161;28;20034;-74
2022/11/26 10:44:44;;;;;;;12.93;4.93;;;;;;;10.61;70.57;101298.34;4987045;28;20182;-72
2022/11/26 10:47:20;;;;;;;12.10;5.05;;;;;;;10.97;69.68;101340.59;4998696;28;20049;-74
2022/11/26 10:49:46;;;;;;;17.08;6.47;;;;;;;11.12;70.54;101335.28;5031360;28;20025;-71
2022/11/26 10:52:16;;;;;;;11.38;5.30;;;;;;;10.80;70.31;101277.78;5041470;28;20029;-74
2022/11/26 10:54:43;;;;;;;12.82;4.82;;;;;;;11.14;69.75;101328.50;5032199;28;20037;-71
2022/11/26 10:57:08;;;;;;;13.57;5.28;;;;;;;10.96;70.65;101333.66;5043635;28;20488;-73
2022/11/26 10:59:43;;;;;;;11.85;5.20;;;;;;;11.10;70.33;101339.53;5050429;28;20033;-72
2022/11/26 11:02:30;;;;;;;18.08;5.88;;;;;;;11.24;70.91;101328.94;5050155;28;20095;-72
2022/11/26 11:04:59;;;;;;;14.20;4.60;;;;;;;11.22;70.26;101315.06;5049996;28;20063;-71
2022/11/26 11:07:45;;;;;;;12.95;5.90;;;;;;;11.16;70.85;101316.56;5035532;28;20503;-74
2022/11/26 11:10:10;;;;;;;11.25;5.00;;;;;;;11.27;70.74;101318.75;5028567;28;20037;-73
2022/11/26 11:12:41;;;;;;;12.05;4.50;;;;;;;10.97;71.25;101327.69;5028446;28;20038;-75
2022/11/26 11:15:26;;;;;;;7.88;4.00;;;;;;;10.97;70.62;101324.22;5028539;28;20029;-70
2022/11/26 11:17:59;;;;;;;7.80;4.20;;;;;;;10.93;71.38;101294.75;5028518;28;20045;-70
2022/11/26 11:20:27;;;;;;;11.00;4.22;;;;;;;10.91;70.94;101272.25;5028489;28;20040;-71
2022/11/26 11:23:15;;;;;;;8.45;4.88;;;;;;;11.10;71.30;101280.09;5028577;28;20128;-71
2022/11/26 11:25:43;;;;;;;10.20;3.90;;;;;;;11.20;68.96;101296.88;4988975;28;20053;-70
2022/11/26 11:28:11;;;;;;;5.95;3.30;;;;;;;11.37;69.84;101313.22;4988968;28;20045;-71
2022/11/26 11:30:38;;;;;;;6.60;3.75;;;;;;;11.44;67.99;101302.34;4989222;28;20042;-72
2022/11/26 11:33:23;;;;;;;5.78;3.25;;;;;;;11.36;69.32;101307.97;4989032;28;20050;-70
2022/11/26 11:36:14;;;;;;;5.63;3.22;;;;;;;11.34;68.94;101297.56;4989008;28;20035;-71